Time;durP1;ratioP1;P1;durP2;ratioP2;P2;SDS_P1;SDS_P2;PMS_P1;PMS_P2;Temp;Humidity;BMP_temperature;BMP_pressure;BME280_temperature;BME280_humidity;BME280_pressure;Samples;Min_cycle;Max_cycle;Signal;HPM_P1;HPM_P2
2021/05/10 00:01:56;;;;;;;0.00;0.00;;;;;;;;;;5092638;28;20911;-65
2021/05/10 00:04:23;;;;;;;0.80;0.53;;;;;;;;;;5090506;28;20660;-67
2021/05/10 00:06:51;;;;;;;1.77;1.60;;;;;;;;;;5091274;28;20713;-66
2021/05/10 00:09:18;;;;;;;0.57;0.57;;;;;;;;;;5090106;28;20216;-66
2021/05/10 00:11:45;;;;;;;0.00;0.00;;;;;;;;;;5093989;28;20259;-66
2021/05/10 00:14:12;;;;;;;2.43;0.30;;;;;;;;;;5089162;28;20190;-66
2021/05/10 00:16:41;;;;;;;1.80;0.57;;;;;;;;;;5093367;28;20281;-66
2021/05/10 00:19:08;;;;;;;0.00;0.00;;;;;;;;;;5088091;28;20196;-66
2021/05/10 00:21:35;;;;;;;0.00;0.00;;;;;;;;;;5091868;28;20349;-67
2021/05/10 00:24:02;;;;;;;0.23;0.23;;;;;;;;;;5090056;28;20193;-66
2021/05/10 00:26:28;;;;;;;9.77;2.73;;;;;;;;;;5074425;28;20370;-66
2021/05/10 00:28:55;;;;;;;0.00;0.00;;;;;;;;;;5086147;28;20185;-66
2021/05/10 00:31:23;;;;;;;0.00;0.00;;;;;;;;;;5088821;28;20929;-66
2021/05/10 00:33:50;;;;;;;2.43;0.73;;;;;;;;;;5091305;28;20663;-66
2021/05/10 00:36:16;;;;;;;0.10;0.10;;;;;;;;;;5072300;28;20196;-68
2021/05/10 00:38:45;;;;;;;3.97;0.43;;;;;;;;;;5088825;28;20186;-68
2021/05/10 00:41:12;;;;;;;0.10;0.10;;;;;;;;;;5090864;28;20205;-66
2021/05/10 00:43:38;;;;;;;0.00;0.00;;;;;;;;;;5091589;28;20185;-67
2021/05/10 00:46:05;;;;;;;0.00;0.00;;;;;;;;;;5093480;28;20193;-66
2021/05/10 00:48:31;;;;;;;0.93;0.40;;;;;;;;;;5090086;28;20189;-66
2021/05/10 00:51:00;;;;;;;0.00;0.00;;;;;;;;;;5087336;28;20241;-69
2021/05/10 00:53:27;;;;;;;0.00;0.00;;;;;;;;;;5090802;28;20177;-67
2021/05/10 00:55:55;;;;;;;1.47;1.37;;;;;;;;;;5093764;28;20209;-67
2021/05/10 00:58:21;;;;;;;1.50;0.63;;;;;;;;;;5092497;28;20189;-67
2021/05/10 01:00:48;;;;;;;0.00;0.00;;;;;;;;;;5087012;28;20618;-67
2021/05/10 01:03:14;;;;;;;0.00;0.00;;;;;;;;;;5087341;28;20189;-66
2021/05/10 01:05:42;;;;;;;0.10;0.10;;;;;;;;;;5069562;28;20189;-66
2021/05/10 01:08:11;;;;;;;0.20;0.20;;;;;;;;;;5089074;28;20214;-67
2021/05/10 01:10:37;;;;;;;0.00;0.00;;;;;;;;;;5095612;28;20215;-68
2021/05/10 01:13:04;;;;;;;0.00;0.00;;;;;;;;;;5090527;28;20178;-66
2021/05/10 01:15:31;;;;;;;0.00;0.00;;;;;;;;;;5092639;28;20173;-66
2021/05/10 01:18:01;;;;;;;4.33;1.90;;;;;;;;;;5080831;28;20170;-66
2021/05/10 01:20:28;;;;;;;0.00;0.00;;;;;;;;;;5090592;28;20190;-66
2021/05/10 01:22:58;;;;;;;0.00;0.00;;;;;;;;;;5088183;28;21094;-67
2021/05/10 01:25:29;;;;;;;0.00;0.00;;;;;;;;;;5084001;28;20596;-71
2021/05/10 01:27:56;;;;;;;5.00;0.53;;;;;;;;;;5083202;28;20280;-67
2021/05/10 01:30:24;;;;;;;0.00;0.00;;;;;;;;;;5085370;28;20206;-68
2021/05/10 01:32:52;;;;;;;0.17;0.17;;;;;;;;;;5083619;28;20197;-67
2021/05/10 01:35:20;;;;;;;0.10;0.00;;;;;;;;;;5085381;28;20182;-68
2021/05/10 01:37:47;;;;;;;0.73;0.67;;;;;;;;;;5084817;28;20170;-67
2021/05/10 01:40:14;;;;;;;4.07;0.53;;;;;;;;;;5088229;28;20194;-68
2021/05/10 01:42:40;;;;;;;2.50;0.67;;;;;;;;;;5085825;28;20191;-69
2021/05/10 01:45:08;;;;;;;0.00;0.00;;;;;;;;;;5087871;28;20175;-69
2021/05/10 01:47:34;;;;;;;0.00;0.00;;;;;;;;;;5091937;28;21068;-69
2021/05/10 01:50:08;;;;;;;0.00;0.00;;;;;;;;;;5085621;28;20294;-69
2021/05/10 01:52:35;;;;;;;0.30;0.30;;;;;;;;;;5087275;28;20976;-69
2021/05/10 01:55:01;;;;;;;0.00;0.00;;;;;;;;;;5086451;28;20667;-67
2021/05/10 01:57:30;;;;;;;8.47;0.33;;;;;;;;;;5089609;28;20776;-69
2021/05/10 01:59:59;;;;;;;0.00;0.00;;;;;;;;;;5096519;27;20190;-69
2021/05/10 02:02:26;;;;;;;0.00;0.00;;;;;;;;;;5089993;28;20555;-66
2021/05/10 02:05:19;;;;;;;0.00;0.00;;;;;;;;;;5088838;28;20193;-68
2021/05/10 02:07:49;;;;;;;0.63;0.33;;;;;;;;;;5084233;28;21258;-67
2021/05/10 02:10:17;;;;;;;0.00;0.00;;;;;;;;;;5090246;28;20206;-67
2021/05/10 02:13:18;;;;;;;0.03;0.03;;;;;;;;;;5091072;28;20177;-68
2021/05/10 02:15:47;;;;;;;1.30;1.20;;;;;;;;;;5052000;28;20190;-68
2021/05/10 02:18:19;;;;;;;0.00;0.00;;;;;;;;;;5089298;28;20186;-68
2021/05/10 02:20:46;;;;;;;0.20;0.20;;;;;;;;;;5092991;28;20232;-68
2021/05/10 02:23:14;;;;;;;2.00;1.33;;;;;;;;;;5088911;28;20192;-68
2021/05/10 02:25:42;;;;;;;0.10;0.10;;;;;;;;;;5092099;28;20193;-68
2021/05/10 02:28:12;;;;;;;0.20;0.20;;;;;;;;;;5091905;28;20638;-68
2021/05/10 02:30:42;;;;;;;0.13;0.13;;;;;;;;;;5089772;28;20197;-68
2021/05/10 02:33:10;;;;;;;0.00;0.00;;;;;;;;;;5089636;28;20181;-68
2021/05/10 02:35:40;;;;;;;0.37;0.20;;;;;;;;;;5095447;28;20186;-67
2021/05/10 02:38:09;;;;;;;2.00;0.27;;;;;;;;;;5093068;28;21037;-68
2021/05/10 02:40:36;;;;;;;0.00;0.00;;;;;;;;;;5089734;28;20455;-69
2021/05/10 02:43:03;;;;;;;0.00;0.00;;;;;;;;;;5087272;28;20198;-68
2021/05/10 02:45:29;;;;;;;0.33;0.33;;;;;;;;;;5141186;22;21838;-67
2021/05/10 02:47:58;;;;;;;0.00;0.00;;;;;;;;;;5054602;28;20186;-68
2021/05/10 02:50:26;;;;;;;0.00;0.00;;;;;;;;;;5055606;28;20179;-68
2021/05/10 02:52:53;;;;;;;0.00;0.00;;;;;;;;;;5050398;28;20191;-68
2021/05/10 02:55:20;;;;;;;0.43;0.23;;;;;;;;;;5057015;28;20699;-69
2021/05/10 02:57:48;;;;;;;0.03;0.00;;;;;;;;;;5056655;28;20850;-69
2021/05/10 03:00:16;;;;;;;0.10;0.10;;;;;;;;;;5052108;28;20190;-68
2021/05/10 03:02:42;;;;;;;0.00;0.00;;;;;;;;;;5051236;28;20545;-68
2021/05/10 03:05:10;;;;;;;0.00;0.00;;;;;;;;;;5048184;28;20195;-67
2021/05/10 03:07:37;;;;;;;0.00;0.00;;;;;;;;;;5048557;28;20679;-68
2021/05/10 03:10:05;;;;;;;2.70;1.23;;;;;;;;;;5049859;28;20183;-67
2021/05/10 03:12:31;;;;;;;0.00;0.00;;;;;;;;;;5057015;28;20294;-69
2021/05/10 03:14:58;;;;;;;1.50;0.83;;;;;;;;;;5052339;28;20183;-68
2021/05/10 03:17:25;;;;;;;0.10;0.10;;;;;;;;;;5053814;28;20909;-68
2021/05/10 03:19:51;;;;;;;0.00;0.00;;;;;;;;;;5050889;28;20186;-68
2021/05/10 03:22:18;;;;;;;0.00;0.00;;;;;;;;;;5048717;28;20180;-68
2021/05/10 03:24:44;;;;;;;0.20;0.20;;;;;;;;;;5052092;28;20678;-68
2021/05/10 03:27:11;;;;;;;0.03;0.03;;;;;;;;;;5050564;28;20677;-68
2021/05/10 03:29:37;;;;;;;0.00;0.00;;;;;;;;;;5049337;28;20183;-68
2021/05/10 03:32:04;;;;;;;0.57;0.57;;;;;;;;;;5048673;28;20298;-68
2021/05/10 03:34:33;;;;;;;3.30;0.27;;;;;;;;;;5049981;28;20190;-68
2021/05/10 03:36:59;;;;;;;0.40;0.37;;;;;;;;;;5050874;28;20183;-68
2021/05/10 03:39:26;;;;;;;0.00;0.00;;;;;;;;;;5047159;28;20183;-67
2021/05/10 03:41:54;;;;;;;0.00;0.00;;;;;;;;;;5048435;28;20194;-67
2021/05/10 03:44:20;;;;;;;0.00;0.00;;;;;;;;;;5045135;28;20192;-67
2021/05/10 03:46:47;;;;;;;0.00;0.00;;;;;;;;;;5048788;28;20231;-67
2021/05/10 03:49:13;;;;;;;0.00;0.00;;;;;;;;;;5047652;28;20198;-68
2021/05/10 03:51:40;;;;;;;0.00;0.00;;;;;;;;;;5049063;28;20258;-68
2021/05/10 03:54:06;;;;;;;0.00;0.00;;;;;;;;;;5048000;28;20209;-68
2021/05/10 03:56:33;;;;;;;0.00;0.00;;;;;;;;;;5050233;28;20772;-67
2021/05/10 03:59:00;;;;;;;0.00;0.00;;;;;;;;;;5048040;28;20188;-67
2021/05/10 04:01:26;;;;;;;0.00;0.00;;;;;;;;;;5049538;28;20191;-67
2021/05/10 04:09:28;;;;;;;0.53;0.03;;;;;;;;;;5047877;28;20198;-67
2021/05/10 04:14:28;;;;;;;0.43;0.20;;;;;;;;;;5052188;28;20236;-67
2021/05/10 04:16:55;;;;;;;0.00;0.00;;;;;;;;;;5049536;28;20277;-68
2021/05/10 04:19:21;;;;;;;0.00;0.00;;;;;;;;;;5050950;28;20183;-68
2021/05/10 04:21:48;;;;;;;0.07;0.07;;;;;;;;;;5034827;28;20194;-66
2021/05/10 04:24:27;;;;;;;0.00;0.00;;;;;;;;;;5050408;28;20195;-67
2021/05/10 04:26:53;;;;;;;3.37;0.77;;;;;;;;;;5049558;28;20187;-68
2021/05/10 04:29:20;;;;;;;0.50;0.20;;;;;;;;;;5050631;28;20206;-74
2021/05/10 04:31:47;;;;;;;0.00;0.00;;;;;;;;;;5044892;28;20203;-71
2021/05/10 04:34:13;;;;;;;0.00;0.00;;;;;;;;;;5046710;28;20303;-70
2021/05/10 04:36:41;;;;;;;0.10;0.10;;;;;;;;;;5047056;28;20213;-70
2021/05/10 04:39:07;;;;;;;0.00;0.00;;;;;;;;;;5048107;28;20182;-68
2021/05/10 04:41:36;;;;;;;0.97;0.30;;;;;;;;;;5045671;28;20284;-69
2021/05/10 04:44:03;;;;;;;1.43;0.67;;;;;;;;;;5050278;28;20200;-69
2021/05/10 04:46:31;;;;;;;0.00;0.00;;;;;;;;;;5049138;28;20230;-69
2021/05/10 04:48:58;;;;;;;0.87;0.30;;;;;;;;;;5048353;28;20237;-69
2021/05/10 04:51:24;;;;;;;0.00;0.00;;;;;;;;;;5048877;28;20336;-69
2021/05/10 04:53:51;;;;;;;0.00;0.00;;;;;;;;;;5045464;28;20628;-69
2021/05/10 04:56:18;;;;;;;0.00;0.00;;;;;;;;;;5049912;28;20187;-68
2021/05/10 04:58:51;;;;;;;3.77;3.47;;;;;;;;;;5050247;28;20183;-69
2021/05/10 05:01:17;;;;;;;0.10;0.10;;;;;;;;;;5048509;28;20201;-68
2021/05/10 05:03:44;;;;;;;0.00;0.00;;;;;;;;;;5049147;28;20414;-68
2021/05/10 05:06:10;;;;;;;0.00;0.00;;;;;;;;;;5054056;28;20786;-68
2021/05/10 05:08:37;;;;;;;0.00;0.00;;;;;;;;;;5048340;28;20281;-68
2021/05/10 05:11:03;;;;;;;0.00;0.00;;;;;;;;;;5048166;28;20205;-68
2021/05/10 05:13:31;;;;;;;0.73;0.27;;;;;;;;;;5047229;28;20237;-68
2021/05/10 05:15:57;;;;;;;0.03;0.03;;;;;;;;;;5047725;28;21301;-68
2021/05/10 05:18:26;;;;;;;0.20;0.20;;;;;;;;;;5050020;28;20602;-68
2021/05/10 05:20:53;;;;;;;0.00;0.00;;;;;;;;;;5050115;28;20193;-68
2021/05/10 05:23:23;;;;;;;0.10;0.10;;;;;;;;;;5048935;28;20260;-68
2021/05/10 05:26:06;;;;;;;2.17;0.47;;;;;;;;;;5050236;28;20182;-68
2021/05/10 05:28:33;;;;;;;4.90;0.30;;;;;;;;;;5048595;28;20627;-69
2021/05/10 05:31:05;;;;;;;0.10;0.10;;;;;;;;;;5049202;28;20217;-68
2021/05/10 05:33:32;;;;;;;0.10;0.10;;;;;;;;;;5048814;28;20185;-68
2021/05/10 05:35:58;;;;;;;0.10;0.10;;;;;;;;;;5048069;28;20178;-67
2021/05/10 05:38:27;;;;;;;0.10;0.10;;;;;;;;;;5052582;28;20196;-68
2021/05/10 05:40:53;;;;;;;0.10;0.10;;;;;;;;;;5052990;28;20319;-68
2021/05/10 05:43:29;;;;;;;0.10;0.10;;;;;;;;;;5053711;28;20198;-68
2021/05/10 05:45:56;;;;;;;0.10;0.10;;;;;;;;;;5051460;28;20222;-68
2021/05/10 05:48:22;;;;;;;0.00;0.00;;;;;;;;;;5053092;28;20189;-68
2021/05/10 05:50:49;;;;;;;0.20;0.20;;;;;;;;;;5050348;28;20189;-69
2021/05/10 05:53:16;;;;;;;0.20;0.20;;;;;;;;;;5053460;28;20674;-68
2021/05/10 05:55:43;;;;;;;0.67;0.67;;;;;;;;;;5055392;28;20250;-68
2021/05/10 05:58:09;;;;;;;0.00;0.00;;;;;;;;;;5052343;28;20599;-67
2021/05/10 06:00:36;;;;;;;0.00;0.00;;;;;;;;;;5053200;28;20220;-68
2021/05/10 06:03:02;;;;;;;0.00;0.00;;;;;;;;;;5051207;28;20216;-67
2021/05/10 06:05:29;;;;;;;0.00;0.00;;;;;;;;;;5052851;28;20183;-67
2021/05/10 06:07:56;;;;;;;0.00;0.00;;;;;;;;;;5054001;28;20192;-68
2021/05/10 06:10:25;;;;;;;0.00;0.00;;;;;;;;;;5049580;28;20189;-67
2021/05/10 06:12:53;;;;;;;0.10;0.10;;;;;;;;;;5053460;28;20205;-68
2021/05/10 06:15:20;;;;;;;0.03;0.03;;;;;;;;;;5055351;28;20265;-67
2021/05/10 06:17:47;;;;;;;0.20;0.20;;;;;;;;;;5056426;28;20546;-68
2021/05/10 06:20:14;;;;;;;0.00;0.00;;;;;;;;;;5055591;28;21241;-68
2021/05/10 06:22:42;;;;;;;0.00;0.00;;;;;;;;;;5053599;28;20290;-68
2021/05/10 06:25:10;;;;;;;1.30;1.20;;;;;;;;;;5055878;28;20194;-68
2021/05/10 06:27:36;;;;;;;0.00;0.00;;;;;;;;;;5052676;28;20175;-67
2021/05/10 06:30:07;;;;;;;0.63;0.63;;;;;;;;;;5052928;28;20552;-68
2021/05/10 06:32:34;;;;;;;0.00;0.00;;;;;;;;;;5050340;28;20206;-68
2021/05/10 06:35:01;;;;;;;0.00;0.00;;;;;;;;;;5053900;28;20182;-68
2021/05/10 06:37:31;;;;;;;0.20;0.20;;;;;;;;;;5057036;28;20217;-68
2021/05/10 06:39:59;;;;;;;0.00;0.00;;;;;;;;;;5052727;28;20185;-67
2021/05/10 06:42:26;;;;;;;0.50;0.50;;;;;;;;;;5051027;28;20187;-68
2021/05/10 06:44:54;;;;;;;0.00;0.00;;;;;;;;;;5049726;28;20194;-67
2021/05/10 06:47:21;;;;;;;0.00;0.00;;;;;;;;;;5051236;28;20335;-68
2021/05/10 06:49:47;;;;;;;1.27;1.17;;;;;;;;;;5056188;28;20190;-67
2021/05/10 06:52:14;;;;;;;0.00;0.00;;;;;;;;;;5052549;28;20283;-67
2021/05/10 06:54:41;;;;;;;0.03;0.03;;;;;;;;;;5055350;28;20727;-68
2021/05/10 06:57:07;;;;;;;2.10;1.90;;;;;;;;;;5053338;28;20206;-68
2021/05/10 06:59:34;;;;;;;0.83;0.57;;;;;;;;;;5053366;28;20201;-69
2021/05/10 07:02:00;;;;;;;0.37;0.37;;;;;;;;;;5055486;28;20190;-70
2021/05/10 07:04:27;;;;;;;0.00;0.00;;;;;;;;;;5054090;28;20187;-68
2021/05/10 07:06:54;;;;;;;0.00;0.00;;;;;;;;;;5055084;28;20193;-68
2021/05/10 07:09:21;;;;;;;0.27;0.10;;;;;;;;;;5050965;28;20182;-69
2021/05/10 07:11:48;;;;;;;0.00;0.00;;;;;;;;;;5050346;28;20202;-68
2021/05/10 07:14:14;;;;;;;0.00;0.00;;;;;;;;;;5051458;28;20242;-68
2021/05/10 07:16:41;;;;;;;0.83;0.80;;;;;;;;;;5048499;28;20182;-68
2021/05/10 07:19:07;;;;;;;0.20;0.20;;;;;;;;;;5034109;28;20240;-68
2021/05/10 13:44:34;;;;;;;0.63;0.50;;;;;;;;;;5094050;28;20185;-59
2021/05/10 13:47:01;;;;;;;3.87;1.47;;;;;;;;;;5074212;28;20616;-59
2021/05/10 13:49:27;;;;;;;0.00;0.00;;;;;;;;;;5084683;28;20258;-59
2021/05/10 13:51:54;;;;;;;0.23;0.23;;;;;;;;;;5080670;28;20186;-59
2021/05/10 13:54:23;;;;;;;0.20;0.20;;;;;;;;;;5089094;28;20184;-59
2021/05/10 13:56:51;;;;;;;0.00;0.00;;;;;;;;;;5092094;28;20191;-59
2021/05/10 13:59:18;;;;;;;3.37;1.30;;;;;;;;;;5094287;28;20238;-59
2021/05/10 14:01:45;;;;;;;1.60;1.50;;;;;;;;;;5092224;28;20208;-59
2021/05/10 14:04:12;;;;;;;2.80;0.67;;;;;;;;;;5095548;28;20180;-59
2021/05/10 14:06:38;;;;;;;0.40;0.13;;;;;;;;;;5090322;28;20355;-59
2021/05/10 14:09:06;;;;;;;0.10;0.10;;;;;;;;;;5088293;28;20209;-58
2021/05/10 14:11:32;;;;;;;13.30;1.77;;;;;;;;;;5085900;28;20657;-58
2021/05/10 14:13:59;;;;;;;1.80;1.70;;;;;;;;;;5086878;28;20659;-58
2021/05/10 14:16:26;;;;;;;2.00;0.20;;;;;;;;;;5087952;28;20178;-59
2021/05/10 14:19:07;;;;;;;0.20;0.20;;;;;;;;;;5087485;28;20184;-58
2021/05/10 14:24:19;;;;;;;4.93;0.53;;;;;;;;;;5084010;28;20284;-58
2021/05/10 14:26:45;;;;;;;1.53;0.10;;;;;;;;;;5092036;28;20196;-58
2021/05/10 14:29:12;;;;;;;3.70;0.73;;;;;;;;;;5090579;28;20872;-59
2021/05/10 14:31:40;;;;;;;0.20;0.20;;;;;;;;;;5091301;28;20218;-59
2021/05/10 14:34:07;;;;;;;0.17;0.17;;;;;;;;;;5092910;28;20267;-59
2021/05/10 14:36:34;;;;;;;0.20;0.10;;;;;;;;;;5093234;28;20174;-59
2021/05/10 14:39:01;;;;;;;0.20;0.20;;;;;;;;;;5089780;28;20294;-59
2021/05/10 14:41:28;;;;;;;6.30;0.50;;;;;;;;;;5094405;28;20252;-59
2021/05/10 14:43:55;;;;;;;0.00;0.00;;;;;;;;;;5091449;28;20197;-58
2021/05/10 14:46:22;;;;;;;2.00;0.23;;;;;;;;;;5083726;28;20171;-59
2021/05/10 14:48:49;;;;;;;0.00;0.00;;;;;;;;;;5086547;28;20273;-58
2021/05/10 14:51:15;;;;;;;0.57;0.57;;;;;;;;;;5078660;28;20775;-58
2021/05/10 14:53:42;;;;;;;0.30;0.30;;;;;;;;;;5064827;28;20269;-58
2021/05/10 14:56:09;;;;;;;0.00;0.00;;;;;;;;;;5081264;28;20739;-59
2021/05/10 14:58:36;;;;;;;3.30;1.13;;;;;;;;;;5076233;28;20209;-59
2021/05/10 15:01:04;;;;;;;0.27;0.03;;;;;;;;;;5075383;28;20208;-59
2021/05/10 15:03:31;;;;;;;0.67;0.67;;;;;;;;;;5077406;28;20186;-58
2021/05/10 15:05:57;;;;;;;0.30;0.30;;;;;;;;;;5076547;28;20962;-59
2021/05/10 15:08:24;;;;;;;2.10;0.53;;;;;;;;;;5076989;28;20186;-59
2021/05/10 15:10:51;;;;;;;6.90;0.53;;;;;;;;;;5064076;28;20176;-59
2021/05/10 15:13:18;;;;;;;0.03;0.03;;;;;;;;;;5070685;28;20187;-58
2021/05/10 15:15:44;;;;;;;0.10;0.10;;;;;;;;;;5068897;28;20177;-58
2021/05/10 15:18:11;;;;;;;0.13;0.03;;;;;;;;;;5068905;28;20180;-58
2021/05/10 15:20:38;;;;;;;0.10;0.10;;;;;;;;;;5071486;28;20199;-59
2021/05/10 15:23:04;;;;;;;0.27;0.27;;;;;;;;;;5067331;28;20206;-58
2021/05/10 15:25:31;;;;;;;0.37;0.27;;;;;;;;;;5078149;28;20272;-58
2021/05/10 15:27:58;;;;;;;0.00;0.00;;;;;;;;;;5069427;28;20190;-59
2021/05/10 15:30:25;;;;;;;1.30;0.93;;;;;;;;;;5063358;28;20559;-58
2021/05/10 15:32:51;;;;;;;8.30;0.77;;;;;;;;;;5079003;28;20635;-59
2021/05/10 15:35:18;;;;;;;0.47;0.10;;;;;;;;;;5071666;28;20188;-58
2021/05/10 15:37:45;;;;;;;1.20;0.37;;;;;;;;;;5077721;28;20189;-58
2021/05/10 15:40:12;;;;;;;0.20;0.20;;;;;;;;;;5077956;28;20307;-59
2021/05/10 15:42:43;;;;;;;0.00;0.00;;;;;;;;;;5077674;28;20187;-58
2021/05/10 15:45:14;;;;;;;0.20;0.20;;;;;;;;;;5074934;28;20217;-59
2021/05/10 15:47:40;;;;;;;2.03;0.77;;;;;;;;;;5075259;28;20335;-59
2021/05/10 15:50:11;;;;;;;7.33;0.77;;;;;;;;;;5067875;28;20183;-59
2021/05/10 15:52:38;;;;;;;0.13;0.13;;;;;;;;;;5071821;28;20183;-59
2021/05/10 15:55:05;;;;;;;0.00;0.00;;;;;;;;;;5075811;28;20601;-59
2021/05/10 15:57:32;;;;;;;2.40;1.40;;;;;;;;;;5076416;28;20659;-58
2021/05/10 15:59:58;;;;;;;1.90;0.87;;;;;;;;;;5067915;28;20187;-58
2021/05/10 16:02:25;;;;;;;1.37;1.30;;;;;;;;;;5066280;28;20556;-58
2021/05/10 16:04:52;;;;;;;3.23;0.43;;;;;;;;;;5069507;28;20185;-58
2021/05/10 16:07:19;;;;;;;2.70;0.50;;;;;;;;;;5071967;28;20223;-58
2021/05/10 16:09:46;;;;;;;0.40;0.30;;;;;;;;;;5073920;28;20185;-58
2021/05/10 16:12:13;;;;;;;0.37;0.13;;;;;;;;;;5074248;28;20170;-59
2021/05/10 16:14:40;;;;;;;1.30;0.40;;;;;;;;;;5066389;28;20194;-59
2021/05/10 16:17:06;;;;;;;0.50;0.23;;;;;;;;;;5059904;28;20187;-59
2021/05/10 16:19:35;;;;;;;4.23;0.50;;;;;;;;;;5062353;28;20175;-59
2021/05/10 16:22:03;;;;;;;0.00;0.00;;;;;;;;;;5059178;28;21131;-59
2021/05/10 16:24:29;;;;;;;0.00;0.00;;;;;;;;;;5071537;28;20195;-59
2021/05/10 16:26:56;;;;;;;0.57;0.20;;;;;;;;;;5071020;28;20187;-58
2021/05/10 16:29:22;;;;;;;8.67;0.80;;;;;;;;;;5072694;28;21012;-59
2021/05/10 16:31:49;;;;;;;0.53;0.40;;;;;;;;;;5065308;28;20186;-58
2021/05/10 16:34:16;;;;;;;1.97;0.80;;;;;;;;;;5076980;28;20245;-60
2021/05/10 16:36:44;;;;;;;0.10;0.10;;;;;;;;;;5060142;28;20187;-58
2021/05/10 16:39:11;;;;;;;0.13;0.10;;;;;;;;;;5070365;28;20191;-59
2021/05/10 16:41:38;;;;;;;3.40;0.77;;;;;;;;;;5073305;28;20227;-58
2021/05/10 16:44:05;;;;;;;3.50;0.87;;;;;;;;;;5077282;28;20288;-58
2021/05/10 16:46:32;;;;;;;1.40;0.83;;;;;;;;;;5079122;28;20182;-58
2021/05/10 16:48:59;;;;;;;0.10;0.10;;;;;;;;;;5070975;28;20182;-59
2021/05/10 16:51:26;;;;;;;2.13;0.47;;;;;;;;;;5072711;28;20184;-59
2021/05/10 16:53:53;;;;;;;2.10;0.50;;;;;;;;;;5079055;28;20188;-59
2021/05/10 16:56:21;;;;;;;1.33;1.23;;;;;;;;;;5073488;28;20287;-59
2021/05/10 16:58:52;;;;;;;0.03;0.03;;;;;;;;;;5071710;28;20190;-59
2021/05/10 17:01:20;;;;;;;0.10;0.10;;;;;;;;;;5075715;28;20214;-59
2021/05/10 17:03:50;;;;;;;0.33;0.33;;;;;;;;;;5076228;28;20209;-58
2021/05/10 17:06:17;;;;;;;0.20;0.20;;;;;;;;;;5068590;28;20995;-58
2021/05/10 17:08:44;;;;;;;0.40;0.40;;;;;;;;;;5068716;28;20237;-60
2021/05/10 17:11:11;;;;;;;0.20;0.20;;;;;;;;;;5076883;28;20202;-58
2021/05/10 17:13:38;;;;;;;17.90;0.83;;;;;;;;;;5069403;28;20706;-59
2021/05/10 17:16:05;;;;;;;0.50;0.50;;;;;;;;;;5070457;28;20184;-59
2021/05/10 17:18:32;;;;;;;5.73;4.13;;;;;;;;;;5063842;28;20183;-59
2021/05/10 17:21:01;;;;;;;0.00;0.00;;;;;;;;;;5066324;28;20289;-59
2021/05/10 17:23:28;;;;;;;0.83;0.30;;;;;;;;;;5065143;28;20932;-58
2021/05/10 17:25:54;;;;;;;0.00;0.00;;;;;;;;;;5072000;28;20180;-59
2021/05/10 17:28:21;;;;;;;0.67;0.37;;;;;;;;;;5072346;28;20198;-59
2021/05/10 17:30:48;;;;;;;4.60;1.10;;;;;;;;;;5068989;28;20876;-59
2021/05/10 17:33:15;;;;;;;2.17;1.50;;;;;;;;;;5068074;28;20962;-59
2021/05/10 17:35:42;;;;;;;0.17;0.17;;;;;;;;;;5071963;28;20345;-58
2021/05/10 17:38:09;;;;;;;0.00;0.00;;;;;;;;;;5069134;28;20640;-59
2021/05/10 17:40:35;;;;;;;0.00;0.00;;;;;;;;;;5078355;28;20234;-58
2021/05/10 17:43:02;;;;;;;0.83;0.83;;;;;;;;;;5066627;28;20856;-59
2021/05/10 17:45:31;;;;;;;0.73;0.20;;;;;;;;;;5069933;28;20731;-59
2021/05/10 17:47:57;;;;;;;1.10;0.70;;;;;;;;;;5069955;28;20174;-58
2021/05/10 17:50:24;;;;;;;7.60;1.90;;;;;;;;;;5066866;28;20743;-59
2021/05/10 17:52:50;;;;;;;4.77;1.23;;;;;;;;;;5070428;28;20922;-58
2021/05/10 17:55:17;;;;;;;4.13;1.77;;;;;;;;;;5073550;28;20544;-59
2021/05/10 17:57:43;;;;;;;0.90;0.73;;;;;;;;;;5066764;28;20554;-58
2021/05/10 18:00:11;;;;;;;4.13;0.40;;;;;;;;;;5063490;28;20242;-59
2021/05/10 18:05:22;;;;;;;0.00;0.00;;;;;;;;;;5065620;28;20193;-59
2021/05/10 18:07:49;;;;;;;1.80;0.37;;;;;;;;;;5065630;28;20186;-58
2021/05/10 18:10:16;;;;;;;0.27;0.27;;;;;;;;;;5068471;28;20299;-59
2021/05/10 18:12:42;;;;;;;1.80;0.53;;;;;;;;;;5059176;28;20189;-58
2021/05/10 18:15:11;;;;;;;0.20;0.10;;;;;;;;;;5071912;28;20193;-58
2021/05/10 18:17:39;;;;;;;0.00;0.00;;;;;;;;;;5072260;28;20267;-59
2021/05/10 18:20:09;;;;;;;2.83;1.03;;;;;;;;;;5075901;28;20182;-59
2021/05/10 18:22:36;;;;;;;0.10;0.10;;;;;;;;;;5071273;28;20177;-59
2021/05/10 18:25:04;;;;;;;0.13;0.07;;;;;;;;;;5074236;28;20184;-58
2021/05/10 18:27:31;;;;;;;1.40;1.13;;;;;;;;;;5078197;28;20177;-58
2021/05/10 18:29:57;;;;;;;0.10;0.10;;;;;;;;;;5083805;28;20262;-58
2021/05/10 18:32:24;;;;;;;0.00;0.00;;;;;;;;;;5071197;28;20239;-59
2021/05/10 18:34:51;;;;;;;0.00;0.00;;;;;;;;;;5079764;28;20208;-58
2021/05/10 18:39:45;;;;;;;0.37;0.37;;;;;;;;;;5088066;28;20240;-59
2021/05/10 18:42:11;;;;;;;0.90;0.87;;;;;;;;;;5074390;28;20212;-59
2021/05/10 18:44:39;;;;;;;0.57;0.50;;;;;;;;;;5078892;28;20192;-58
2021/05/10 18:47:07;;;;;;;5.13;0.57;;;;;;;;;;5074812;28;20182;-59
2021/05/10 18:49:43;;;;;;;0.10;0.10;;;;;;;;;;5064026;28;20187;-58
2021/05/10 18:52:09;;;;;;;0.00;0.00;;;;;;;;;;5076006;28;20181;-58
2021/05/10 18:54:36;;;;;;;1.67;1.03;;;;;;;;;;5083793;28;20442;-58
2021/05/10 18:57:03;;;;;;;12.47;2.03;;;;;;;;;;5068986;28;20187;-59
2021/05/10 18:59:29;;;;;;;1.17;0.93;;;;;;;;;;5079221;28;20186;-59
2021/05/10 19:01:56;;;;;;;0.63;0.53;;;;;;;;;;5074085;28;20201;-58
2021/05/10 19:04:22;;;;;;;0.40;0.40;;;;;;;;;;5067396;28;20541;-59
2021/05/10 19:06:49;;;;;;;0.67;0.67;;;;;;;;;;5066066;28;20184;-59
2021/05/10 19:09:16;;;;;;;3.27;1.03;;;;;;;;;;5070193;28;20179;-58
2021/05/10 19:11:42;;;;;;;0.63;0.63;;;;;;;;;;5077348;28;20267;-58
2021/05/10 19:14:09;;;;;;;0.00;0.00;;;;;;;;;;5078255;28;20187;-58
2021/05/10 19:16:35;;;;;;;0.77;0.47;;;;;;;;;;5063892;28;20237;-58
2021/05/10 19:19:02;;;;;;;0.00;0.00;;;;;;;;;;5075753;28;20174;-59
2021/05/10 19:21:29;;;;;;;3.97;0.33;;;;;;;;;;5067302;28;20354;-58
2021/05/10 19:23:56;;;;;;;0.27;0.27;;;;;;;;;;5068537;28;20190;-59
2021/05/10 19:26:26;;;;;;;0.00;0.00;;;;;;;;;;5067585;28;20222;-58
2021/05/10 19:28:53;;;;;;;1.90;0.63;;;;;;;;;;5070119;28;20644;-58
2021/05/10 19:31:19;;;;;;;4.47;1.07;;;;;;;;;;5064490;28;20206;-59
2021/05/10 19:33:46;;;;;;;1.13;1.07;;;;;;;;;;5083390;28;20198;-59
2021/05/10 19:36:13;;;;;;;0.67;0.40;;;;;;;;;;5063163;28;20198;-58
2021/05/10 19:38:40;;;;;;;0.00;0.00;;;;;;;;;;5078737;28;20182;-58
2021/05/10 19:41:07;;;;;;;0.00;0.00;;;;;;;;;;5077555;28;20234;-60
2021/05/10 19:43:34;;;;;;;0.00;0.00;;;;;;;;;;5073682;28;20181;-58
2021/05/10 19:46:03;;;;;;;0.10;0.03;;;;;;;;;;5075694;28;21858;-58
2021/05/10 19:48:36;;;;;;;0.40;0.30;;;;;;;;;;5062368;28;20194;-58
2021/05/10 20:01:51;;;;;;;0.10;0.10;;;;;;;;;;5061172;28;20210;-58
2021/05/10 20:04:17;;;;;;;0.50;0.23;;;;;;;;;;5070200;28;20190;-58
2021/05/10 20:06:44;;;;;;;0.13;0.13;;;;;;;;;;5069260;28;20179;-58
2021/05/10 20:09:10;;;;;;;0.00;0.00;;;;;;;;;;5075343;28;20186;-58
2021/05/10 20:11:39;;;;;;;0.67;0.63;;;;;;;;;;5081989;28;20183;-58
2021/05/10 20:14:06;;;;;;;0.00;0.00;;;;;;;;;;5075195;28;20194;-58
2021/05/10 20:16:33;;;;;;;2.27;0.33;;;;;;;;;;5071354;28;20726;-58
2021/05/10 20:18:59;;;;;;;0.00;0.00;;;;;;;;;;5070458;28;20186;-58
2021/05/10 20:21:26;;;;;;;1.17;0.83;;;;;;;;;;5074078;28;20199;-59
2021/05/10 20:23:52;;;;;;;0.00;0.00;;;;;;;;;;5062146;28;20256;-59
2021/05/10 20:26:19;;;;;;;1.73;0.43;;;;;;;;;;5059884;28;20305;-59
2021/05/10 20:28:46;;;;;;;0.43;0.43;;;;;;;;;;5062111;28;20183;-59
2021/05/10 20:31:12;;;;;;;2.37;0.77;;;;;;;;;;5078726;28;20195;-58
2021/05/10 20:33:39;;;;;;;0.57;0.50;;;;;;;;;;5065272;28;20216;-59
2021/05/10 20:36:06;;;;;;;3.80;0.87;;;;;;;;;;5060700;28;20956;-59
2021/05/10 20:38:32;;;;;;;0.37;0.37;;;;;;;;;;5064547;28;20174;-59
2021/05/10 20:40:59;;;;;;;0.93;0.60;;;;;;;;;;5078125;28;20241;-58
2021/05/10 20:43:28;;;;;;;1.73;1.63;;;;;;;;;;5068440;28;20175;-58
2021/05/10 20:45:56;;;;;;;1.00;0.63;;;;;;;;;;5078526;28;20182;-59
2021/05/10 20:48:23;;;;;;;1.60;0.33;;;;;;;;;;5078732;28;20189;-59
2021/05/10 20:50:49;;;;;;;2.00;0.77;;;;;;;;;;5067825;28;20247;-58
2021/05/10 20:53:16;;;;;;;0.20;0.20;;;;;;;;;;5068484;28;20183;-58
2021/05/10 20:55:42;;;;;;;2.23;0.97;;;;;;;;;;5061058;28;20659;-58
2021/05/10 20:58:09;;;;;;;2.40;0.87;;;;;;;;;;5074677;28;20367;-58
2021/05/10 21:00:36;;;;;;;0.20;0.20;;;;;;;;;;5059298;28;20207;-59
2021/05/10 21:03:05;;;;;;;0.40;0.40;;;;;;;;;;5057890;28;20193;-58
2021/05/10 21:05:32;;;;;;;5.97;0.33;;;;;;;;;;5071409;28;20202;-58
2021/05/10 21:07:58;;;;;;;2.70;0.57;;;;;;;;;;5080383;28;20243;-58
2021/05/10 21:10:25;;;;;;;4.57;0.47;;;;;;;;;;5077107;28;20174;-59
2021/05/10 21:12:52;;;;;;;0.30;0.30;;;;;;;;;;5070232;28;20178;-61
2021/05/10 21:15:20;;;;;;;2.83;1.40;;;;;;;;;;5070798;28;20809;-62
2021/05/10 21:17:46;;;;;;;3.50;1.30;;;;;;;;;;5069868;28;20264;-61
2021/05/10 21:20:13;;;;;;;14.47;3.97;;;;;;;;;;5060639;28;20218;-61
2021/05/10 21:22:40;;;;;;;0.00;0.00;;;;;;;;;;5067676;28;20255;-61
2021/05/10 21:25:07;;;;;;;1.07;0.67;;;;;;;;;;5070577;28;20194;-61
2021/05/10 21:27:34;;;;;;;0.00;0.00;;;;;;;;;;5073491;28;20182;-61
2021/05/10 21:30:00;;;;;;;0.03;0.03;;;;;;;;;;5083138;28;20498;-61
2021/05/10 21:32:27;;;;;;;0.00;0.00;;;;;;;;;;5064037;28;20736;-62
2021/05/10 21:34:53;;;;;;;1.67;0.30;;;;;;;;;;5060479;28;20190;-61